EDDK METAR and TAF | Updated Today

EDDK METAR

Cologne Bonn Airport

Observation time: 14 min. ago

EDDK 080620Z 15011KT 9999 FEW030 04/03 Q0997 NOSIG

Need help? Read our tutorial on how to read METARs or read the parsed version below.

Cologne Bonn Airport (EDDK) METAR

  • Weather conditions on Wed, 08 Dec 2021 06:20:00 +0000 (14 min. ago):
  • Present conditions: Dry
  • Clouds: A few at 914 meters
  • Visibility: Greater than 10 km
  • Wind: 150 degrees at 11 knots
  • Temperature: 4 celsius
  • Dew point: 3 celsius
  • Pressure: 997 millibars
  • Remarks: None


Useful to know...

EDDK TAF

Cologne Bonn Airport

TAF EDDK 080500Z 0806/0912 16010KT 9999 SCT030 BECMG 0812/0815 15005KT
Observation time: 1:34 hr. ago
Need help? Read our tutorial on how to read TAFs or read the parsed version below.

Parsed version of TAF for Cologne Bonn Airport (EDDK)

  • From 08 December at 06:00 UTC, to day 09 of the month at 12:00 UTC
  • Clouds: Scattered at 914 meters
  • Visibility: Greater than 10 km
  • Wind: 160 degrees at 10
  • Expected to arise soon, from 08 December at 12:00 UTC, to day 08 of the month at 15:00 UTC
  • Wind: 150 degrees at 5